Time;durP1;ratioP1;P1;durP2;ratioP2;P2;SDS_P1;SDS_P2;PMS_P1;PMS_P2;Temp;Humidity;BMP_temperature;BMP_pressure;BME280_temperature;BME280_humidity;BME280_pressure;Samples;Min_cycle;Max_cycle;Signal;HPM_P1;HPM_P2
2022/03/06 00:01:01;;;;;;;34.25;15.38;;;;;;;1.26;77.76;102554.22;5047314;28;20029;-56
2022/03/06 00:03:26;;;;;;;28.42;15.65;;;;;;;1.20;78.00;102546.22;5047105;28;20477;-58
2022/03/06 00:05:52;;;;;;;34.95;14.88;;;;;;;1.21;77.76;102548.00;5046857;28;20041;-54
2022/03/06 00:08:17;;;;;;;31.23;15.73;;;;;;;1.16;77.43;102549.56;5047806;28;20454;-54
2022/03/06 00:10:42;;;;;;;30.85;15.63;;;;;;;1.10;77.65;102546.75;5047584;28;20056;-55
2022/03/06 00:13:08;;;;;;;29.10;14.57;;;;;;;1.09;77.63;102551.06;5046370;28;20542;-56
2022/03/06 00:15:33;;;;;;;27.05;14.50;;;;;;;1.09;77.33;102558.00;5047059;28;20021;-58
2022/03/06 00:17:59;;;;;;;29.05;15.63;;;;;;;1.06;77.73;102551.00;5046223;28;20028;-57
2022/03/06 00:20:24;;;;;;;32.47;15.93;;;;;;;1.04;77.63;102552.63;5046274;28;20035;-56
2022/03/06 00:22:49;;;;;;;31.80;15.30;;;;;;;1.04;77.34;102556.94;5046878;28;20464;-58
2022/03/06 00:25:15;;;;;;;34.63;14.63;;;;;;;1.03;77.38;102560.38;5046345;28;20025;-56
2022/03/06 00:27:40;;;;;;;30.15;14.30;;;;;;;0.96;77.87;102562.75;5048097;28;20025;-57
2022/03/06 00:30:08;;;;;;;33.65;15.52;;;;;;;0.94;77.43;102566.13;5045734;28;20025;-55
2022/03/06 00:32:33;;;;;;;30.60;14.38;;;;;;;0.94;77.79;102560.94;5047822;28;20028;-54
2022/03/06 00:34:58;;;;;;;31.25;15.05;;;;;;;0.90;77.78;102562.53;5028290;28;20025;-55
2022/03/06 00:37:24;;;;;;;33.35;15.35;;;;;;;0.88;77.78;102566.81;5027076;28;20105;-57
2022/03/06 00:39:49;;;;;;;29.77;14.98;;;;;;;0.82;77.72;102556.22;5027432;28;20033;-54
2022/03/06 00:42:14;;;;;;;31.50;14.98;;;;;;;0.82;77.67;102567.50;5039372;28;20407;-55
2022/03/06 00:44:40;;;;;;;31.33;13.80;;;;;;;0.82;77.60;102564.91;5046904;28;20029;-57
2022/03/06 00:47:05;;;;;;;31.30;15.23;;;;;;;0.82;77.37;102564.00;5046970;28;20059;-56
2022/03/06 00:49:31;;;;;;;26.98;13.18;;;;;;;0.79;77.49;102566.50;5045960;28;20036;-56
2022/03/06 00:51:57;;;;;;;28.58;14.80;;;;;;;0.76;77.74;102567.28;5046866;28;20108;-56
2022/03/06 00:54:22;;;;;;;27.95;13.95;;;;;;;0.71;77.75;102577.50;5046015;28;20124;-55
2022/03/06 00:56:48;;;;;;;28.13;14.45;;;;;;;0.71;77.66;102574.91;5047382;28;20029;-55
2022/03/06 00:59:14;;;;;;;26.35;13.05;;;;;;;0.72;77.66;102584.44;5046264;28;20025;-57
2022/03/06 01:01:39;;;;;;;31.40;14.07;;;;;;;0.73;77.83;102582.75;5036207;28;20054;-56
2022/03/06 01:04:05;;;;;;;25.38;14.55;;;;;;;0.70;77.29;102588.72;5024499;28;20120;-54
2022/03/06 01:06:30;;;;;;;30.00;14.02;;;;;;;0.69;77.64;102586.91;5024922;28;20018;-57
2022/03/06 01:08:55;;;;;;;30.45;14.38;;;;;;;0.70;77.71;102588.72;5028531;28;20067;-56
2022/03/06 01:11:21;;;;;;;28.15;13.77;;;;;;;0.72;77.59;102592.22;5045824;28;20017;-58
2022/03/06 01:13:46;;;;;;;27.17;13.70;;;;;;;0.72;77.65;102594.81;5046119;28;20024;-59
2022/03/06 01:16:12;;;;;;;26.02;12.55;;;;;;;0.76;77.91;102593.22;5046527;28;20025;-58
2022/03/06 01:18:38;;;;;;;23.30;13.68;;;;;;;0.72;77.96;102597.41;5045467;28;20036;-54
2022/03/06 01:21:03;;;;;;;28.05;14.20;;;;;;;0.67;78.62;102604.16;5046691;28;20399;-55
2022/03/06 01:23:28;;;;;;;26.25;14.75;;;;;;;0.62;79.01;102606.59;5046049;28;20033;-56
2022/03/06 01:25:54;;;;;;;28.40;13.93;;;;;;;0.63;79.38;102607.44;5045830;28;20377;-55
2022/03/06 01:28:19;;;;;;;30.33;14.85;;;;;;;0.63;79.50;102610.03;5046531;28;20074;-55
2022/03/06 01:30:44;;;;;;;29.25;14.48;;;;;;;0.62;79.97;102616.06;5045684;28;20021;-57
2022/03/06 01:33:10;;;;;;;30.35;13.35;;;;;;;0.58;80.26;102615.09;5044909;28;20033;-56
2022/03/06 01:35:35;;;;;;;28.65;14.18;;;;;;;0.55;81.29;102620.16;5046774;28;20021;-56
2022/03/06 01:38:00;;;;;;;26.92;14.13;;;;;;;0.50;81.78;102620.00;5045610;28;20025;-56
2022/03/06 01:40:26;;;;;;;28.27;15.55;;;;;;;0.50;82.55;102622.59;5044525;28;20040;-57
2022/03/06 01:42:51;;;;;;;29.20;15.40;;;;;;;0.52;82.84;102625.25;5046495;28;20024;-56
2022/03/06 01:45:20;;;;;;;25.92;15.00;;;;;;;0.55;82.67;102621.88;5044796;28;20024;-56
2022/03/06 01:47:48;;;;;;;30.15;13.73;;;;;;;0.55;82.76;102620.16;5045615;28;20033;-56
2022/03/06 01:50:19;;;;;;;28.60;14.70;;;;;;;0.55;82.85;102619.28;5045126;28;20527;-55
2022/03/06 01:52:46;;;;;;;32.00;16.10;;;;;;;0.55;83.01;102619.28;5046398;28;20025;-56
2022/03/06 01:55:13;;;;;;;33.90;14.90;;;;;;;0.58;82.80;102629.78;5045651;28;20082;-61
2022/03/06 01:57:40;;;;;;;28.33;15.05;;;;;;;0.63;82.91;102620.44;5045564;28;20021;-56
2022/03/06 02:00:09;;;;;;;30.67;14.82;;;;;;;0.72;82.49;102625.97;5046341;28;20039;-57
2022/03/06 02:02:34;;;;;;;25.75;14.05;;;;;;;0.78;82.33;102621.84;5043978;28;20052;-57
2022/03/06 02:05:00;;;;;;;28.98;14.57;;;;;;;0.79;82.26;102624.47;5045202;28;20025;-53
2022/03/06 02:07:26;;;;;;;27.13;14.73;;;;;;;0.87;82.09;102624.72;5043167;28;20041;-55
2022/03/06 02:09:51;;;;;;;27.10;14.55;;;;;;;0.97;81.62;102623.34;5044176;28;20017;-58
2022/03/06 02:12:26;;;;;;;27.00;14.82;;;;;;;1.05;81.43;102626.22;5043663;28;20415;-57
2022/03/06 02:14:55;;;;;;;26.70;13.32;;;;;;;1.13;81.08;102619.56;5040542;28;20108;-56
2022/03/06 02:17:21;;;;;;;24.42;14.32;;;;;;;1.21;80.74;102623.31;5045650;28;20029;-59
2022/03/06 02:19:58;;;;;;;28.90;14.98;;;;;;;1.28;80.59;102624.41;5043650;28;20032;-56
2022/03/06 02:22:26;;;;;;;23.80;13.00;;;;;;;1.35;80.23;102626.38;5043853;28;20033;-53
2022/03/06 02:24:52;;;;;;;25.23;14.93;;;;;;;1.39;80.26;102629.97;5045197;28;20025;-57
2022/03/06 02:27:18;;;;;;;23.45;14.10;;;;;;;1.39;80.19;102629.97;5044459;28;20368;-57
2022/03/06 02:29:44;;;;;;;28.45;14.30;;;;;;;1.39;80.20;102627.38;5043784;28;20033;-54
2022/03/06 02:32:10;;;;;;;24.48;14.00;;;;;;;1.45;80.11;102625.00;5044552;28;20395;-55
2022/03/06 02:34:37;;;;;;;26.92;14.93;;;;;;;1.43;80.11;102621.44;5044086;28;20518;-55
2022/03/06 02:37:03;;;;;;;24.02;14.07;;;;;;;1.43;80.07;102629.25;5046034;28;20024;-55
2022/03/06 02:39:28;;;;;;;22.65;13.88;;;;;;;1.42;80.40;102627.47;5042741;28;20297;-55
2022/03/06 02:41:54;;;;;;;22.17;13.85;;;;;;;1.42;79.99;102627.47;5039485;28;20092;-55
2022/03/06 02:44:21;;;;;;;23.00;14.20;;;;;;;1.47;79.69;102622.41;5024791;28;20033;-57
2022/03/06 02:46:46;;;;;;;23.05;15.30;;;;;;;1.47;79.19;102625.91;5024992;28;20021;-56
2022/03/06 02:49:13;;;;;;;27.48;15.43;;;;;;;1.47;79.27;102632.81;5025125;28;20048;-55
2022/03/06 02:51:40;;;;;;;24.77;14.25;;;;;;;1.46;79.11;102633.66;5025373;28;20120;-54
2022/03/06 02:54:05;;;;;;;24.90;15.43;;;;;;;1.48;78.62;102630.25;5025256;28;20480;-56
2022/03/06 02:56:31;;;;;;;25.48;14.95;;;;;;;1.50;78.07;102631.19;5026137;28;20155;-57
2022/03/06 02:58:56;;;;;;;23.73;13.23;;;;;;;1.51;77.45;102632.97;5042274;28;20550;-56
2022/03/06 03:01:22;;;;;;;26.48;14.48;;;;;;;1.45;77.69;102627.59;5048939;28;20025;-56
2022/03/06 03:03:47;;;;;;;25.95;16.02;;;;;;;1.39;77.60;102627.38;5045700;28;20029;-55
2022/03/06 03:06:12;;;;;;;25.20;14.75;;;;;;;1.29;78.05;102625.31;5048048;28;20025;-56
2022/03/06 03:08:38;;;;;;;26.02;15.80;;;;;;;1.19;78.80;102624.09;5047780;28;20033;-56
2022/03/06 03:11:03;;;;;;;26.63;15.48;;;;;;;1.11;79.35;102637.69;5049030;28;20021;-58
2022/03/06 03:13:28;;;;;;;27.23;15.40;;;;;;;1.07;79.73;102630.63;5029174;28;20087;-54
2022/03/06 03:15:54;;;;;;;26.20;16.58;;;;;;;1.02;80.58;102639.09;5028032;28;20064;-56
2022/03/06 03:18:20;;;;;;;31.90;18.10;;;;;;;1.04;80.73;102640.03;5037484;28;20061;-57
2022/03/06 03:20:45;;;;;;;28.15;16.20;;;;;;;0.96;80.87;102647.56;5049143;28;20031;-56
2022/03/06 03:23:10;;;;;;;28.55;16.70;;;;;;;0.90;81.10;102649.94;5047183;28;20021;-56
2022/03/06 03:25:36;;;;;;;28.08;17.30;;;;;;;0.85;81.43;102649.75;5049056;28;20060;-56
2022/03/06 03:28:01;;;;;;;27.65;17.48;;;;;;;0.79;81.57;102649.53;5048042;28;20024;-54
2022/03/06 03:30:26;;;;;;;29.55;17.23;;;;;;;0.73;81.79;102645.88;5047423;28;20071;-54
2022/03/06 03:32:52;;;;;;;30.60;18.15;;;;;;;0.68;82.37;102655.22;5048087;28;20021;-57
2022/03/06 03:35:17;;;;;;;35.63;19.75;;;;;;;0.67;82.61;102656.06;5046933;28;20476;-55
2022/03/06 03:37:42;;;;;;;33.15;18.58;;;;;;;0.62;82.36;102655.00;5048723;28;20123;-57
2022/03/06 03:40:08;;;;;;;30.88;18.83;;;;;;;0.57;82.76;102654.81;5047599;28;20031;-59
2022/03/06 03:42:34;;;;;;;27.88;18.45;;;;;;;0.51;82.91;102657.19;5047855;28;20111;-56
2022/03/06 03:45:00;;;;;;;39.35;19.80;;;;;;;0.44;82.89;102669.06;5048073;28;20128;-55
2022/03/06 03:47:25;;;;;;;37.65;19.48;;;;;;;0.39;83.11;102661.94;5045859;28;20755;-57
2022/03/06 03:49:50;;;;;;;34.08;19.38;;;;;;;0.36;83.27;102654.91;5047860;28;20064;-54
2022/03/06 03:52:16;;;;;;;39.83;20.13;;;;;;;0.34;83.62;102656.56;5047562;28;20095;-54
2022/03/06 03:54:41;;;;;;;30.35;20.08;;;;;;;0.32;83.47;102659.09;5046837;28;20041;-56
2022/03/06 03:57:07;;;;;;;30.42;19.25;;;;;;;0.27;83.37;102658.03;5048437;28;20024;-54
2022/03/06 03:59:32;;;;;;;33.00;19.00;;;;;;;0.25;83.48;102657.09;5047885;28;20033;-59
2022/03/06 04:01:58;;;;;;;29.95;18.48;;;;;;;0.20;83.63;102661.19;5047524;28;20051;-56
2022/03/06 04:04:24;;;;;;;29.88;18.85;;;;;;;0.18;83.67;102653.38;5047183;28;20052;-55
2022/03/06 04:06:49;;;;;;;30.83;19.50;;;;;;;0.19;83.52;102657.75;5046416;28;20031;-55
2022/03/06 04:09:15;;;;;;;32.97;19.30;;;;;;;0.21;83.36;102663.84;5047038;28;20014;-55
2022/03/06 04:11:40;;;;;;;30.80;17.25;;;;;;;0.22;83.24;102668.25;5044838;28;20163;-55
2022/03/06 04:14:05;;;;;;;30.73;18.63;;;;;;;0.14;83.36;102656.66;5048294;28;20029;-55
2022/03/06 04:16:31;;;;;;;31.70;18.90;;;;;;;0.08;83.62;102661.59;5047037;28;20056;-55
2022/03/06 04:18:56;;;;;;;29.25;18.88;;;;;;;0.00;84.05;102663.94;5046752;28;20036;-55
2022/03/06 04:21:21;;;;;;;34.70;20.33;;;;;;;-0.03;84.48;102662.06;5046666;28;20065;-56
2022/03/06 04:23:47;;;;;;;33.15;20.52;;;;;;;-0.05;84.59;102663.75;5047188;28;20025;-52
2022/03/06 04:26:12;;;;;;;35.88;20.42;;;;;;;-0.10;84.44;102657.47;5048055;28;20033;-53
2022/03/06 04:28:38;;;;;;;34.45;20.92;;;;;;;-0.14;84.60;102656.47;5046612;28;20104;-55
2022/03/06 04:31:03;;;;;;;29.95;17.42;;;;;;;-0.14;84.33;102668.53;5048485;28;20052;-55
2022/03/06 04:33:28;;;;;;;31.65;19.33;;;;;;;-0.19;84.47;102665.75;5046632;28;20111;-55
2022/03/06 04:35:53;;;;;;;33.10;21.00;;;;;;;-0.20;84.67;102673.47;5046898;28;20082;-55
2022/03/06 04:38:19;;;;;;;33.90;19.92;;;;;;;-0.24;84.54;102675.03;5046759;28;20094;-55
2022/03/06 04:40:46;;;;;;;35.75;20.15;;;;;;;-0.22;84.78;102669.91;5046666;28;20124;-55
2022/03/06 04:43:12;;;;;;;32.45;19.52;;;;;;;-0.25;84.59;102675.88;5047336;28;20029;-55
2022/03/06 04:45:37;;;;;;;37.85;20.70;;;;;;;-0.31;84.46;102676.50;5046081;28;20094;-55
2022/03/06 04:48:02;;;;;;;30.77;18.42;;;;;;;-0.33;84.31;102678.13;5045660;28;20025;-56
2022/03/06 04:50:28;;;;;;;34.15;20.27;;;;;;;-0.42;84.46;102681.25;5046339;28;20029;-57
2022/03/06 04:52:53;;;;;;;32.13;20.23;;;;;;;-0.47;84.67;102685.34;5046652;28;20498;-57
2022/03/06 04:55:18;;;;;;;35.25;20.08;;;;;;;-0.53;85.36;102693.75;5046679;28;20021;-57
2022/03/06 04:57:46;;;;;;;30.25;20.33;;;;;;;-0.54;85.51;102691.97;5045990;28;20032;-56
2022/03/06 05:00:13;;;;;;;38.22;21.60;;;;;;;-0.59;85.32;102701.25;5046426;28;20601;-57
2022/03/06 05:02:38;;;;;;;34.08;21.08;;;;;;;-0.61;85.37;102700.31;5045132;28;20134;-59
2022/03/06 05:05:03;;;;;;;35.85;21.00;;;;;;;-0.64;85.43;102706.25;5047260;28;20100;-56
2022/03/06 05:07:29;;;;;;;35.47;21.65;;;;;;;-0.71;85.52;102706.81;5036078;28;20052;-57
2022/03/06 05:09:55;;;;;;;30.90;19.48;;;;;;;-0.73;85.72;102712.75;5043501;28;20039;-56
2022/03/06 05:12:20;;;;;;;38.85;23.63;;;;;;;-0.79;85.87;102714.22;5044754;28;20040;-56
2022/03/06 05:14:45;;;;;;;40.90;22.42;;;;;;;-0.78;86.10;102713.41;5046970;28;20025;-57
2022/03/06 05:17:11;;;;;;;35.90;21.23;;;;;;;-0.73;86.10;102717.91;5042742;28;20032;-57
2022/03/06 05:19:36;;;;;;;35.50;21.35;;;;;;;-0.73;86.16;102711.00;5045170;28;20818;-58
2022/03/06 05:22:02;;;;;;;38.97;21.48;;;;;;;-0.72;85.68;102714.50;5046947;28;20029;-56
2022/03/06 05:24:28;;;;;;;40.55;22.38;;;;;;;-0.73;85.79;102723.09;5045787;28;20689;-56
2022/03/06 05:26:53;;;;;;;37.67;22.15;;;;;;;-0.74;85.86;102716.13;5046345;28;20086;-57
2022/03/06 05:29:18;;;;;;;35.10;21.52;;;;;;;-0.75;85.80;102719.53;5045298;28;20025;-57
2022/03/06 05:31:44;;;;;;;33.88;20.77;;;;;;;-0.77;85.83;102720.38;5045759;28;20100;-55
2022/03/06 05:34:09;;;;;;;38.45;23.08;;;;;;;-0.74;85.69;102721.31;5045422;28;20025;-56
2022/03/06 05:36:34;;;;;;;40.60;22.00;;;;;;;-0.75;85.88;102724.72;5046794;28;20044;-59
2022/03/06 05:39:00;;;;;;;35.88;22.27;;;;;;;-0.78;85.43;102728.06;5046345;28;20028;-57
2022/03/06 05:41:25;;;;;;;32.60;20.08;;;;;;;-0.82;85.58;102732.22;5045684;28;20120;-55
2022/03/06 05:43:51;;;;;;;30.58;19.55;;;;;;;-0.84;85.63;102731.25;5045657;28;20247;-57
2022/03/06 05:46:16;;;;;;;30.17;18.83;;;;;;;-0.83;85.63;102733.03;5045903;28;20024;-60
2022/03/06 05:48:41;;;;;;;30.25;20.25;;;;;;;-0.88;85.52;102738.84;5044051;28;20029;-57
2022/03/06 05:51:07;;;;;;;33.25;19.58;;;;;;;-0.92;85.75;102742.97;5045615;28;20403;-56
2022/03/06 05:53:33;;;;;;;32.97;19.58;;;;;;;-0.94;85.78;102744.59;5046222;28;20399;-58
2022/03/06 05:55:58;;;;;;;36.20;20.85;;;;;;;-0.93;85.89;102743.81;5045759;28;20111;-57
2022/03/06 05:58:24;;;;;;;39.15;21.98;;;;;;;-0.92;86.12;102751.63;5045639;28;20594;-55
2022/03/06 06:00:49;;;;;;;31.92;19.73;;;;;;;-0.85;85.88;102746.75;5044214;28;20040;-57
2022/03/06 06:03:15;;;;;;;33.15;20.98;;;;;;;-0.82;85.51;102750.34;5044625;28;20033;-57
2022/03/06 06:05:41;;;;;;;38.22;20.30;;;;;;;-0.82;85.48;102755.50;5045477;28;20029;-55
2022/03/06 06:08:06;;;;;;;30.90;18.67;;;;;;;-0.82;85.22;102755.50;5043759;28;20391;-54
2022/03/06 06:10:32;;;;;;;35.65;20.23;;;;;;;-0.83;85.47;102761.50;5045245;28;20379;-59
2022/03/06 06:12:57;;;;;;;31.63;19.17;;;;;;;-0.82;85.29;102764.97;5045458;28;20107;-56
2022/03/06 06:15:22;;;;;;;30.63;18.10;;;;;;;-0.81;85.03;102767.63;5044309;28;20037;-57
2022/03/06 06:17:48;;;;;;;33.92;20.10;;;;;;;-0.79;84.87;102771.19;5044428;28;20036;-56
2022/03/06 06:20:13;;;;;;;33.95;18.88;;;;;;;-0.80;84.67;102766.84;5045365;28;20029;-57
2022/03/06 06:22:39;;;;;;;32.85;20.02;;;;;;;-0.77;84.55;102774.75;5043233;28;20029;-67
2022/03/06 06:25:04;;;;;;;32.58;19.42;;;;;;;-0.72;84.16;102777.50;5045120;28;20030;-58
2022/03/06 06:27:30;;;;;;;37.08;19.73;;;;;;;-0.73;84.02;102785.22;5044699;28;20036;-57
2022/03/06 06:29:55;;;;;;;25.42;16.95;;;;;;;-0.71;83.92;102787.06;5044479;28;20029;-54
2022/03/06 06:32:21;;;;;;;29.58;17.70;;;;;;;-0.72;84.00;102787.00;5043965;28;20078;-56
2022/03/06 06:34:46;;;;;;;35.30;18.33;;;;;;;-0.70;83.75;102798.28;5045323;28;20119;-55
2022/03/06 06:37:13;;;;;;;24.67;16.23;;;;;;;-0.69;83.64;102790.59;5044267;28;20029;-54
2022/03/06 06:39:38;;;;;;;30.33;17.08;;;;;;;-0.67;83.99;102788.06;5045025;28;20021;-57
2022/03/06 06:42:04;;;;;;;30.58;18.10;;;;;;;-0.62;83.81;102784.00;5045557;28;20040;-58
2022/03/06 06:44:30;;;;;;;28.05;16.63;;;;;;;-0.56;83.42;102793.72;5045201;28;20029;-56
2022/03/06 06:46:55;;;;;;;26.38;15.63;;;;;;;-0.53;83.24;102797.34;5044585;28;20059;-58
2022/03/06 06:49:21;;;;;;;28.50;16.05;;;;;;;-0.47;82.98;102798.44;5044921;28;20114;-57
2022/03/06 06:51:46;;;;;;;23.02;15.48;;;;;;;-0.43;82.59;102805.50;5045088;28;20029;-56
2022/03/06 06:54:13;;;;;;;25.38;15.27;;;;;;;-0.41;82.67;102803.88;5043452;28;20107;-56
2022/03/06 06:56:39;;;;;;;23.15;14.38;;;;;;;-0.37;82.24;102810.09;5044485;28;20028;-56
2022/03/06 06:59:04;;;;;;;24.23;15.40;;;;;;;-0.40;82.28;102816.00;5044410;28;20037;-55
2022/03/06 07:01:30;;;;;;;21.90;15.18;;;;;;;-0.35;81.72;102814.50;5044580;28;20566;-55
2022/03/06 07:03:55;;;;;;;28.13;15.82;;;;;;;-0.31;81.34;102815.50;5044278;28;20406;-57
2022/03/06 07:06:20;;;;;;;23.42;14.85;;;;;;;-0.27;81.26;102818.31;5043405;28;20057;-56
2022/03/06 07:08:46;;;;;;;23.33;13.95;;;;;;;-0.22;80.80;102822.78;5044521;28;20402;-58
2022/03/06 07:11:11;;;;;;;19.40;13.23;;;;;;;-0.17;80.85;102824.78;5043740;28;20031;-57
2022/03/06 07:13:36;;;;;;;17.80;12.18;;;;;;;-0.13;80.76;102825.78;5044783;28;20666;-56
2022/03/06 07:16:02;;;;;;;23.15;13.75;;;;;;;-0.08;80.57;102832.06;5044817;28;20063;-55
2022/03/06 07:18:27;;;;;;;23.00;13.65;;;;;;;-0.01;80.36;102839.28;5042618;28;20119;-57
2022/03/06 07:20:53;;;;;;;22.20;13.25;;;;;;;0.07;79.83;102841.31;5043870;28;20029;-54
2022/03/06 07:23:19;;;;;;;23.38;13.30;;;;;;;0.11;79.94;102843.22;5044185;28;20021;-55
2022/03/06 07:25:44;;;;;;;19.73;12.60;;;;;;;0.20;79.45;102842.69;5044429;28;20464;-61
2022/03/06 07:28:10;;;;;;;23.33;12.30;;;;;;;0.28;79.27;102849.13;5044252;28;20052;-50
2022/03/06 07:30:35;;;;;;;20.92;13.50;;;;;;;0.30;79.33;102851.78;5044862;28;20021;-56
2022/03/06 07:33:00;;;;;;;20.25;13.18;;;;;;;0.39;79.02;102849.53;5043919;28;20109;-58
2022/03/06 07:35:26;;;;;;;17.05;11.73;;;;;;;0.49;78.66;102854.28;5044336;28;20118;-62
2022/03/06 07:37:52;;;;;;;19.63;11.43;;;;;;;0.57;78.37;102862.38;5044505;28;20373;-60
2022/03/06 07:40:19;;;;;;;19.50;11.85;;;;;;;0.68;77.99;102859.31;5043982;28;20446;-59
2022/03/06 07:42:45;;;;;;;17.30;11.57;;;;;;;0.73;77.64;102860.41;5045115;28;20107;-59
2022/03/06 07:45:11;;;;;;;17.52;11.60;;;;;;;0.84;76.99;102866.91;5047465;28;20113;-59
2022/03/06 07:47:37;;;;;;;19.10;11.63;;;;;;;0.96;76.44;102863.91;5045762;28;20494;-60
2022/03/06 07:50:04;;;;;;;15.70;10.77;;;;;;;1.07;75.96;102864.31;5048482;28;20281;-60
2022/03/06 07:52:29;;;;;;;18.13;11.40;;;;;;;1.12;75.33;102877.50;5047193;28;20518;-60
2022/03/06 07:54:54;;;;;;;17.13;10.15;;;;;;;1.11;74.48;102874.00;5047472;28;20033;-59
2022/03/06 07:57:20;;;;;;;23.02;9.68;;;;;;;1.24;74.40;102864.94;5047628;28;20447;-63
2022/03/06 07:59:45;;;;;;;12.90;9.20;;;;;;;1.30;74.14;102872.13;5047158;28;20121;-57
2022/03/06 08:02:10;;;;;;;15.18;8.88;;;;;;;1.39;73.67;102875.03;5046176;28;20052;-59
2022/03/06 08:04:36;;;;;;;11.88;8.35;;;;;;;1.44;73.25;102875.22;5048186;28;20025;-59
2022/03/06 08:07:01;;;;;;;11.45;7.72;;;;;;;1.48;72.47;102879.69;5047542;28;20028;-57
2022/03/06 08:09:27;;;;;;;18.92;7.18;;;;;;;1.53;71.71;102884.19;5046368;28;20044;-59
2022/03/06 08:11:52;;;;;;;12.25;7.57;;;;;;;1.56;71.11;102886.91;5045787;28;20029;-54
2022/03/06 08:14:18;;;;;;;14.63;7.30;;;;;;;1.66;71.20;102890.72;5041855;28;20399;-53
2022/03/06 08:16:43;;;;;;;12.93;6.90;;;;;;;1.65;70.89;102889.81;5043594;28;20387;-56
2022/03/06 08:19:08;;;;;;;12.45;7.32;;;;;;;1.75;70.22;102891.91;5044096;28;20025;-53
2022/03/06 08:21:34;;;;;;;11.07;6.72;;;;;;;1.76;70.04;102893.72;5045858;28;20387;-55
2022/03/06 08:23:59;;;;;;;10.73;6.10;;;;;;;1.81;69.90;102905.97;5046503;28;20025;-53
2022/03/06 08:26:25;;;;;;;7.55;6.45;;;;;;;1.80;70.07;102909.44;5046049;28;20420;-55
2022/03/06 08:28:50;;;;;;;9.32;6.35;;;;;;;1.91;69.55;102905.47;5042915;28;20029;-56
2022/03/06 08:31:16;;;;;;;8.48;6.75;;;;;;;2.01;69.74;102897.19;5045757;28;20449;-52
2022/03/06 08:33:41;;;;;;;12.95;6.63;;;;;;;2.02;69.01;102903.28;5045654;28;20025;-54
2022/03/06 08:36:06;;;;;;;13.43;6.38;;;;;;;2.04;68.89;102898.13;5046327;28;20017;-53
2022/03/06 08:38:32;;;;;;;8.50;5.95;;;;;;;2.16;68.99;102908.94;5046843;28;20021;-58
2022/03/06 08:40:57;;;;;;;10.95;5.75;;;;;;;2.01;67.73;102904.09;5042211;28;20022;-57
2022/03/06 08:43:23;;;;;;;14.77;5.18;;;;;;;2.17;67.77;102910.72;5043990;28;20047;-55
2022/03/06 08:45:48;;;;;;;10.07;5.57;;;;;;;2.10;67.26;102914.81;5046206;28;20009;-55
2022/03/06 08:48:13;;;;;;;11.60;5.70;;;;;;;2.16;66.44;102919.34;5045012;28;20017;-56
2022/03/06 08:50:39;;;;;;;11.18;4.75;;;;;;;2.21;66.12;102906.50;5040549;28;20056;-57
2022/03/06 08:53:04;;;;;;;8.25;4.72;;;;;;;2.16;66.63;102910.69;5047046;28;20032;-57
2022/03/06 08:55:29;;;;;;;6.30;4.70;;;;;;;2.24;66.53;102907.50;5045248;28;20165;-55
2022/03/06 08:57:55;;;;;;;7.32;4.60;;;;;;;2.35;65.23;102904.38;5046373;28;20040;-54
2022/03/06 09:00:20;;;;;;;8.00;5.30;;;;;;;2.33;65.72;102912.13;5040758;28;20388;-54
2022/03/06 09:02:46;;;;;;;9.00;5.68;;;;;;;2.33;65.08;102921.66;5044888;28;20055;-62
2022/03/06 09:05:11;;;;;;;9.95;5.10;;;;;;;2.41;64.71;102925.41;5046000;28;20061;-56
2022/03/06 09:07:36;;;;;;;6.05;4.40;;;;;;;2.42;63.87;102915.88;5046343;28;20013;-61
2022/03/06 09:10:03;;;;;;;6.57;4.80;;;;;;;2.46;63.77;102918.63;5046028;28;20472;-56
2022/03/06 09:12:28;;;;;;;6.97;4.43;;;;;;;2.41;63.94;102920.22;5045660;28;20467;-53
2022/03/06 09:14:53;;;;;;;8.35;4.43;;;;;;;2.49;63.94;102916.13;5045891;28;20035;-51
2022/03/06 09:17:19;;;;;;;10.10;4.80;;;;;;;2.52;63.13;102913.63;5044560;28;20028;-56
2022/03/06 09:19:44;;;;;;;7.30;4.28;;;;;;;2.62;62.99;102908.75;5033675;28;20488;-50
2022/03/06 09:22:10;;;;;;;6.75;4.55;;;;;;;2.62;62.20;102913.94;5045921;28;20112;-58
2022/03/06 09:24:35;;;;;;;10.93;4.60;;;;;;;2.52;62.57;102908.44;5046227;28;20507;-57
2022/03/06 09:27:00;;;;;;;5.55;4.22;;;;;;;2.67;62.48;102907.16;5046239;28;20357;-58
2022/03/06 09:29:26;;;;;;;7.45;4.18;;;;;;;2.77;62.82;102917.03;5045500;28;20025;-58
2022/03/06 09:31:51;;;;;;;6.22;4.47;;;;;;;2.89;62.31;102919.16;5045022;28;20067;-60
2022/03/06 09:34:16;;;;;;;4.75;3.97;;;;;;;2.82;62.10;102918.88;5045671;28;20025;-60
2022/03/06 09:36:42;;;;;;;5.28;4.32;;;;;;;2.88;62.47;102919.09;5045425;28;20021;-58
2022/03/06 09:39:07;;;;;;;5.90;4.30;;;;;;;2.88;62.06;102911.28;5045418;28;20032;-57
2022/03/06 09:41:37;;;;;;;9.77;4.45;;;;;;;2.97;60.62;102914.19;5046067;28;20036;-58
2022/03/06 09:44:09;;;;;;;7.15;4.95;;;;;;;2.92;61.67;102920.94;5044845;28;20025;-60
2022/03/06 09:46:35;;;;;;;9.48;5.00;;;;;;;3.02;61.57;102917.84;5034589;28;20033;-58
2022/03/06 09:49:02;;;;;;;6.72;4.22;;;;;;;3.00;60.90;102914.28;5040705;28;20576;-59
2022/03/06 09:51:32;;;;;;;5.35;4.47;;;;;;;2.91;60.73;102911.38;5041792;28;20033;-58
2022/03/06 09:53:57;;;;;;;7.70;4.70;;;;;;;3.03;60.86;102914.38;5044150;28;20037;-58
2022/03/06 09:56:22;;;;;;;9.18;4.30;;;;;;;3.01;60.30;102912.56;5045341;28;20013;-60
2022/03/06 09:58:49;;;;;;;7.47;4.22;;;;;;;3.01;60.24;102917.78;5045611;28;20094;-60
2022/03/06 10:01:14;;;;;;;8.57;4.45;;;;;;;3.05;60.38;102926.56;5044060;28;20031;-58
2022/03/06 10:03:39;;;;;;;7.05;4.20;;;;;;;3.15;60.65;102918.19;5044912;28;20041;-58
2022/03/06 10:06:07;;;;;;;8.00;4.22;;;;;;;3.33;60.19;102919.59;5044336;28;20021;-58
2022/03/06 10:08:32;;;;;;;11.23;3.90;;;;;;;3.41;59.70;102912.91;5045344;28;20025;-57
2022/03/06 10:11:02;;;;;;;9.00;4.03;;;;;;;3.41;59.56;102913.75;5044974;28;20111;-59
2022/03/06 10:13:33;;;;;;;6.43;3.67;;;;;;;3.36;59.59;102909.25;5045215;28;20021;-58
2022/03/06 10:16:18;;;;;;;5.43;3.58;;;;;;;3.32;60.35;102907.41;5045081;28;20075;-60
2022/03/06 10:18:54;;;;;;;6.97;3.88;;;;;;;3.31;60.18;102909.13;5043937;28;20127;-58
2022/03/06 10:21:26;;;;;;;5.78;3.80;;;;;;;3.42;59.93;102919.88;5043776;28;20075;-59
2022/03/06 10:23:59;;;;;;;7.68;3.40;;;;;;;3.31;60.12;102910.84;5045161;28;20059;-58
2022/03/06 10:26:26;;;;;;;4.10;3.70;;;;;;;3.28;60.25;102924.66;5041058;28;20081;-56
2022/03/06 10:29:03;;;;;;;6.47;4.28;;;;;;;3.21;59.23;102914.88;5044640;28;20067;-53
2022/03/06 10:31:31;;;;;;;7.05;4.03;;;;;;;3.45;59.51;102925.19;5042238;28;20028;-58
2022/03/06 10:33:58;;;;;;;5.05;3.55;;;;;;;3.51;59.45;102925.34;5044808;28;20028;-57
2022/03/06 10:36:33;;;;;;;6.38;4.07;;;;;;;3.40;59.73;102926.75;5043220;28;20028;-55
2022/03/06 10:38:58;;;;;;;4.60;3.75;;;;;;;3.51;60.27;102935.78;5040132;28;20020;-58
2022/03/06 10:41:38;;;;;;;6.18;3.83;;;;;;;3.80;59.71;102934.88;5040484;28;20064;-57
2022/03/06 10:44:03;;;;;;;;;;;;;;;3.95;58.75;102931.81;5044449;28;20479;-55
2022/03/06 10:46:33;;;;;;;5.75;3.95;;;;;;;3.80;57.80;102937.47;5043133;28;19951;-59
2022/03/06 10:49:00;;;;;;;6.50;3.80;;;;;;;3.91;58.75;102941.25;5041665;28;20030;-61
2022/03/06 10:51:27;;;;;;;7.57;4.95;;;;;;;4.16;58.57;102926.25;5036204;28;20086;-58
2022/03/06 10:53:54;;;;;;;6.43;4.18;;;;;;;4.30;57.98;102933.56;5037273;28;20024;-54
2022/03/06 10:56:20;;;;;;;5.95;4.15;;;;;;;4.20;56.77;102939.41;5043165;28;20025;-54
2022/03/06 10:58:47;;;;;;;9.38;4.22;;;;;;;4.42;57.72;102933.00;5040250;28;20021;-53
2022/03/06 11:01:12;;;;;;;5.72;3.75;;;;;;;4.59;57.28;102925.63;5043242;28;20112;-56
2022/03/06 11:03:38;;;;;;;6.13;4.47;;;;;;;4.76;56.35;102928.63;5042986;28;20372;-54
2022/03/06 11:06:04;;;;;;;9.70;4.90;;;;;;;4.40;55.30;102934.72;5044887;28;20052;-55
2022/03/06 11:08:30;;;;;;;7.07;3.70;;;;;;;4.17;56.60;102928.06;5039121;28;20024;-56
2022/03/06 11:10:56;;;;;;;7.57;4.43;;;;;;;4.29;56.73;102924.00;5039270;28;20100;-52
2022/03/06 11:13:22;;;;;;;7.00;4.50;;;;;;;4.47;56.64;102930.53;5041571;28;20104;-56